Cincinnati, Ohio
Traffic Map
Current Weather Conditions
Cincinnati, Ohio
Overcast
Overcast

Feels Like: -3°
Wind Chill: -3° Ceiling: 4400
Heat Index: Visibility: 10mi
Dew Point: -4° Wind: 22mph
Humidity: 59% Direction: 260° (W)
Pressure: 29.83in Gusts: 30mph
Raw Report DataKLUK 251453Z 26019G26KT 10SM OVC044 03/M04 A2983 RMK AO2 PK WND 27027/1442 SLP101 T00281044 51038
Traffic Incident Summary
Active as of:
Severity:
Category:
InformationThere was an issue retrieving the traffic information for this location. Please try a different location or try again shortly.
Advertisements
Track Severe Weather on mobile